createdAt,value
2023-02-11T00:01:21.812Z,77.11
2023-02-11T00:03:49.899Z,77.43
2023-02-11T00:06:18.189Z,77.34
2023-02-11T00:08:46.434Z,77.16
2023-02-11T00:11:15.826Z,77.25
2023-02-11T00:13:45.869Z,77.23
2023-02-11T00:16:16.802Z,77.11
2023-02-11T00:18:45.151Z,76.58
2023-02-11T00:21:14.833Z,77.13
2023-02-11T00:23:43.485Z,77.08
2023-02-11T00:26:13.673Z,76.61
2023-02-11T00:28:45.287Z,77.06
2023-02-11T00:31:14.053Z,77.01
2023-02-11T00:33:42.649Z,77.12
2023-02-11T00:36:14.156Z,77.04
2023-02-11T00:38:44.172Z,77.66
2023-02-11T00:41:13.018Z,77.69
2023-02-11T00:43:41.440Z,76.74
2023-02-11T00:46:10.728Z,76.93
2023-02-11T00:48:38.834Z,77.44
2023-02-11T00:51:07.432Z,77.25
2023-02-11T00:53:35.883Z,76.63
2023-02-11T00:56:04.260Z,77.06
2023-02-11T00:58:32.374Z,77.30
2023-02-11T01:01:00.596Z,77.71
2023-02-11T01:03:30.103Z,77.68
2023-02-11T01:05:58.018Z,76.71
2023-02-11T01:08:25.945Z,77.44
2023-02-11T01:10:58.292Z,77.21
2023-02-11T01:13:27.952Z,77.36
2023-02-11T01:15:58.710Z,77.00
2023-02-11T01:18:27.102Z,77.63
2023-02-11T01:20:56.435Z,77.20
2023-02-11T01:23:24.614Z,77.41
2023-02-11T01:25:53.117Z,76.95
2023-02-11T01:28:22.977Z,77.00
2023-02-11T01:30:51.663Z,77.20
2023-02-11T01:33:19.409Z,77.58
2023-02-11T01:35:47.870Z,76.99
2023-02-11T01:38:19.331Z,77.54
2023-02-11T01:40:51.916Z,76.98
2023-02-11T01:43:19.794Z,76.97
2023-02-11T01:45:58.414Z,76.99
2023-02-11T01:48:30.304Z,77.82
2023-02-11T01:51:04.345Z,77.18
2023-02-11T01:53:52.342Z,77.41
2023-02-11T01:56:39.253Z,77.92
2023-02-11T01:59:11.324Z,77.03
2023-02-11T02:01:42.473Z,77.36
2023-02-11T02:04:11.914Z,76.92
2023-02-11T02:06:49.055Z,77.42
2023-02-11T02:09:23.154Z,77.32
2023-02-11T02:11:51.953Z,77.25
2023-02-11T02:14:20.149Z,77.10
2023-02-11T02:16:48.528Z,77.08
2023-02-11T02:19:51.392Z,77.56
2023-02-11T02:22:55.195Z,77.39
2023-02-11T02:26:13.839Z,77.44
2023-02-11T02:29:12.136Z,77.18
2023-02-11T02:32:13.471Z,77.18
2023-02-11T02:34:51.342Z,77.58
2023-02-11T02:37:25.411Z,77.68
2023-02-11T02:39:53.412Z,77.09
2023-02-11T02:42:22.288Z,78.09
2023-02-11T02:44:50.749Z,77.53
2023-02-11T02:47:18.541Z,77.81
2023-02-11T02:49:47.727Z,77.48
2023-02-11T02:52:27.648Z,77.86
2023-02-11T02:55:09.998Z,77.08
2023-02-11T02:57:53.827Z,77.85
2023-02-11T03:00:30.918Z,77.78
2023-02-11T03:03:11.032Z,77.28
2023-02-11T03:05:50.138Z,77.59
2023-02-11T03:08:25.598Z,77.63
2023-02-11T03:10:56.249Z,77.38
2023-02-11T03:13:32.000Z,77.22
2023-02-11T03:16:03.771Z,77.61
2023-02-11T03:18:34.374Z,78.10
2023-02-11T03:21:06.252Z,77.73
2023-02-11T03:23:38.700Z,77.42
2023-02-11T03:26:12.612Z,78.08
2023-02-11T03:28:45.564Z,78.12
2023-02-11T03:31:28.126Z,78.03
2023-02-11T03:34:05.232Z,77.96
2023-02-11T03:36:41.005Z,77.31
2023-02-11T03:39:12.613Z,78.29
2023-02-11T03:41:43.193Z,77.78
2023-02-11T03:44:14.914Z,78.11
2023-02-11T03:46:49.014Z,77.38
2023-02-11T03:49:20.095Z,77.83
2023-02-11T03:51:52.723Z,78.04
2023-02-11T03:54:22.094Z,77.92
2023-02-11T03:56:54.417Z,77.37
2023-02-11T03:59:22.989Z,78.14
2023-02-11T04:01:51.007Z,77.75
2023-02-11T04:04:19.047Z,77.91
2023-02-11T04:06:46.859Z,77.59
2023-02-11T04:09:16.141Z,77.53
2023-02-11T04:11:43.894Z,77.92
2023-02-11T04:14:11.678Z,78.25
2023-02-11T04:16:39.610Z,77.90
2023-02-11T04:19:07.931Z,77.59
2023-02-11T04:21:35.657Z,78.01
2023-02-11T04:24:03.429Z,77.56
2023-02-11T04:26:32.540Z,77.44
2023-02-11T04:29:00.240Z,77.68
2023-02-11T04:31:28.141Z,77.75
2023-02-11T04:33:56.234Z,78.23
2023-02-11T04:36:24.037Z,77.69
2023-02-11T04:38:51.811Z,78.28
2023-02-11T04:41:19.677Z,77.96
2023-02-11T04:43:48.808Z,77.79
2023-02-11T04:46:16.530Z,77.71
2023-02-11T04:48:44.338Z,78.58
2023-02-11T04:51:12.216Z,77.78
2023-02-11T04:53:39.981Z,77.55
2023-02-11T04:56:08.174Z,78.33
2023-02-11T04:58:36.060Z,77.84
2023-02-11T05:01:08.770Z,77.71
2023-02-11T05:03:37.234Z,78.50
2023-02-11T05:06:06.008Z,77.84
2023-02-11T05:08:34.380Z,77.93
2023-02-11T05:11:02.974Z,78.58
2023-02-11T05:13:31.021Z,77.92
2023-02-11T05:15:58.774Z,78.32
2023-02-11T05:18:27.956Z,78.14
2023-02-11T05:20:55.747Z,78.01
2023-02-11T05:23:23.655Z,78.57
2023-02-11T05:25:51.679Z,78.40
2023-02-11T05:28:20.010Z,78.21
2023-02-11T05:30:47.853Z,78.41
2023-02-11T05:33:15.782Z,78.14
2023-02-11T05:35:45.028Z,78.36
2023-02-11T05:38:13.042Z,78.11
2023-02-11T05:40:40.884Z,78.55
2023-02-11T05:43:08.779Z,78.46
2023-02-11T05:45:37.202Z,77.94
2023-02-11T05:48:05.213Z,78.08
2023-02-11T05:50:33.034Z,77.85
2023-02-11T05:53:02.121Z,78.14
2023-02-11T05:55:29.958Z,78.19
2023-02-11T05:57:57.754Z,78.06
2023-02-11T06:00:26.066Z,78.08
2023-02-11T06:02:53.930Z,78.31
2023-02-11T06:05:21.698Z,78.74
2023-02-11T06:07:49.525Z,78.39
2023-02-11T06:10:18.810Z,78.18
2023-02-11T06:12:46.582Z,78.70
2023-02-11T06:15:14.339Z,78.08
2023-02-11T06:17:42.174Z,78.40
2023-02-11T06:20:11.176Z,78.62
2023-02-11T06:22:39.037Z,78.32
2023-02-11T06:25:07.695Z,78.15
2023-02-11T06:27:36.899Z,78.64
2023-02-11T06:30:05.078Z,78.33
2023-02-11T06:32:43.821Z,78.22
2023-02-11T06:35:13.455Z,78.32
2023-02-11T06:37:41.252Z,78.25
2023-02-11T06:40:09.674Z,78.26
2023-02-11T06:42:39.901Z,79.06
2023-02-11T06:45:09.374Z,79.12
2023-02-11T06:47:37.944Z,78.36
2023-02-11T06:50:06.431Z,78.32
2023-02-11T06:52:34.672Z,78.58
2023-02-11T06:55:02.607Z,78.19
2023-02-11T06:57:31.439Z,78.96
2023-02-11T07:00:00.600Z,78.99
2023-02-11T07:02:28.636Z,79.09
2023-02-11T07:04:56.528Z,78.59
2023-02-11T07:07:24.308Z,78.39
2023-02-11T07:09:52.151Z,78.77
2023-02-11T07:12:19.909Z,79.07
2023-02-11T07:14:47.645Z,79.03
2023-02-11T07:17:16.934Z,79.11
2023-02-11T07:19:44.732Z,79.06
2023-02-11T07:22:12.644Z,78.52
2023-02-11T07:24:40.475Z,79.09
2023-02-11T07:27:08.757Z,78.93
2023-02-11T07:29:36.502Z,78.92
2023-02-11T07:32:04.440Z,78.62
2023-02-11T07:34:33.866Z,79.26
2023-02-11T07:37:01.633Z,78.83
2023-02-11T07:39:29.502Z,78.52
2023-02-11T07:41:58.400Z,78.64
2023-02-11T07:44:26.701Z,79.31
2023-02-11T07:46:54.582Z,79.37
2023-02-11T07:49:22.592Z,78.86
2023-02-11T07:51:52.056Z,79.31
2023-02-11T07:54:20.019Z,78.72
2023-02-11T07:56:48.009Z,79.01
2023-02-11T07:59:15.900Z,78.85
2023-02-11T08:01:43.847Z,79.04
2023-02-11T08:04:11.798Z,79.08
2023-02-11T08:06:43.106Z,78.82
2023-02-11T08:09:16.254Z,79.43
2023-02-11T08:11:44.750Z,79.68
2023-02-11T08:14:13.417Z,79.06
2023-02-11T08:16:41.876Z,79.38
2023-02-11T08:19:14.177Z,79.36
2023-02-11T08:21:42.608Z,79.55
2023-02-11T08:24:12.849Z,79.71
2023-02-11T08:26:41.004Z,79.56
2023-02-11T08:29:11.660Z,79.48
2023-02-11T08:31:41.456Z,78.99
2023-02-11T08:34:11.347Z,79.17
2023-02-11T08:36:40.622Z,79.51
2023-02-11T08:39:19.099Z,79.26
2023-02-11T08:41:49.768Z,79.06
2023-02-11T08:44:18.348Z,79.33
2023-02-11T08:46:46.283Z,79.15
2023-02-11T08:49:15.437Z,79.79
2023-02-11T08:51:43.862Z,79.28
2023-02-11T08:54:12.091Z,79.52
2023-02-11T08:56:40.559Z,79.69
2023-02-11T08:59:12.088Z,79.39
2023-02-11T09:01:39.987Z,79.53
2023-02-11T09:04:07.742Z,79.79
2023-02-11T09:06:35.547Z,79.58
2023-02-11T09:09:03.308Z,79.54
2023-02-11T09:11:33.775Z,79.95
2023-02-11T09:14:02.269Z,79.77
2023-02-11T09:16:32.881Z,79.43
2023-02-11T09:19:02.316Z,79.75
2023-02-11T09:21:30.705Z,79.65
2023-02-11T09:23:58.516Z,79.59
2023-02-11T09:26:28.738Z,79.75
2023-02-11T09:28:57.057Z,79.92
2023-02-11T09:31:27.119Z,79.42
2023-02-11T09:34:00.509Z,79.67
2023-02-11T09:36:30.777Z,79.81
2023-02-11T09:39:06.030Z,79.70
2023-02-11T09:41:59.292Z,80.05
2023-02-11T09:44:29.501Z,79.84
2023-02-11T09:47:00.616Z,79.75
2023-02-11T09:49:36.333Z,79.76
2023-02-11T09:52:09.361Z,79.78
2023-02-11T09:54:40.171Z,79.59
2023-02-11T09:57:22.870Z,80.28
2023-02-11T09:59:56.595Z,79.72
2023-02-11T10:02:35.311Z,80.23
2023-02-11T10:05:31.381Z,79.84
2023-02-11T10:08:09.873Z,80.02
2023-02-11T10:10:48.930Z,80.09
2023-02-11T10:13:44.008Z,79.98
2023-02-11T10:16:24.559Z,80.26
2023-02-11T10:19:09.685Z,80.03
2023-02-11T10:21:46.700Z,80.21
2023-02-11T10:24:17.926Z,79.89
2023-02-11T10:26:46.672Z,79.89
2023-02-11T10:29:27.007Z,79.72
2023-02-11T10:31:57.960Z,80.08
2023-02-11T10:34:26.232Z,80.14
2023-02-11T10:36:55.478Z,80.14
2023-02-11T10:39:26.489Z,80.14
2023-02-11T10:41:58.105Z,80.18
2023-02-11T10:44:31.955Z,80.34
2023-02-11T10:47:03.863Z,80.11
2023-02-11T10:49:38.014Z,80.00
2023-02-11T10:52:25.155Z,79.94
2023-02-11T10:55:05.499Z,80.11
2023-02-11T10:57:38.959Z,80.15
2023-02-11T11:00:27.227Z,80.35
2023-02-11T11:02:57.763Z,79.91
2023-02-11T11:05:32.236Z,80.24
2023-02-11T11:08:04.995Z,80.13
2023-02-11T11:10:43.443Z,80.43
2023-02-11T11:13:32.953Z,80.18
2023-02-11T11:16:25.543Z,80.37
2023-02-11T11:18:55.397Z,80.04
2023-02-11T11:21:25.337Z,80.53
2023-02-11T11:24:00.313Z,79.81
2023-02-11T11:26:30.578Z,80.32
2023-02-11T11:29:02.131Z,80.12
2023-02-11T11:31:34.418Z,80.48
2023-02-11T11:34:07.758Z,80.17
2023-02-11T11:36:38.700Z,80.58
2023-02-11T11:39:21.796Z,80.59
2023-02-11T11:42:24.833Z,80.69
2023-02-11T11:44:59.274Z,80.10
2023-02-11T11:47:35.316Z,80.08
2023-02-11T11:50:28.919Z,80.45
2023-02-11T11:53:04.139Z,80.47
2023-02-11T11:55:39.115Z,80.30
2023-02-11T11:58:14.547Z,80.47
2023-02-11T12:00:53.179Z,80.63
2023-02-11T12:03:59.829Z,80.31
2023-02-11T12:06:39.208Z,80.53
2023-02-11T12:09:16.925Z,80.22
2023-02-11T12:12:21.460Z,80.34
2023-02-11T12:15:00.505Z,80.24
2023-02-11T12:17:44.874Z,80.61
2023-02-11T12:20:28.829Z,80.59
2023-02-11T12:23:09.297Z,80.27
2023-02-11T12:25:44.678Z,80.11
2023-02-11T12:28:26.777Z,80.67
2023-02-11T12:31:13.397Z,80.51
2023-02-11T12:34:26.524Z,79.90
2023-02-11T12:37:03.443Z,79.94
2023-02-11T12:39:42.420Z,80.79
2023-02-11T12:42:44.502Z,80.28
2023-02-11T12:45:25.994Z,80.23
2023-02-11T12:48:10.518Z,80.41
2023-02-11T12:50:50.115Z,79.84
2023-02-11T12:53:41.388Z,80.41
2023-02-11T12:56:16.119Z,80.75
2023-02-11T12:58:45.967Z,80.14
2023-02-11T13:01:23.325Z,80.66
2023-02-11T13:03:55.766Z,80.44
2023-02-11T13:06:30.536Z,79.88
2023-02-11T13:09:01.934Z,81.18
2023-02-11T13:11:33.231Z,80.40
2023-02-11T13:14:05.490Z,80.87
2023-02-11T13:16:39.466Z,80.99
2023-02-11T13:19:18.398Z,80.52
2023-02-11T13:22:03.915Z,80.67
2023-02-11T13:24:44.087Z,80.89
2023-02-11T13:27:32.850Z,80.16
2023-02-11T13:30:26.911Z,80.67
2023-02-11T13:33:33.768Z,80.78
2023-02-11T13:36:17.701Z,80.76
2023-02-11T13:39:04.395Z,80.75
2023-02-11T13:41:35.148Z,81.01
2023-02-11T13:44:25.723Z,80.34
2023-02-11T13:46:58.239Z,80.47
2023-02-11T13:49:32.922Z,80.49
2023-02-11T13:52:03.970Z,81.17
2023-02-11T13:54:35.438Z,80.13
2023-02-11T13:57:28.110Z,80.42
2023-02-11T13:59:57.439Z,81.20
2023-02-11T14:02:46.911Z,81.06
2023-02-11T14:09:08.796Z,80.65
2023-02-11T14:11:50.206Z,80.88
2023-02-11T14:14:23.758Z,80.61
2023-02-11T14:17:21.265Z,80.74
2023-02-11T14:19:50.076Z,81.02
2023-02-11T14:22:25.895Z,81.21
2023-02-11T14:24:57.419Z,80.75
2023-02-11T14:27:30.603Z,81.16
2023-02-11T14:30:32.879Z,80.86
2023-02-11T14:33:42.249Z,80.52
2023-02-11T14:36:24.035Z,81.41
2023-02-11T14:39:06.873Z,80.63
2023-02-11T14:41:36.769Z,80.65
2023-02-11T14:44:07.639Z,81.17
2023-02-11T14:46:36.076Z,80.43
2023-02-11T14:49:06.468Z,81.33
2023-02-11T14:51:37.121Z,81.01
2023-02-11T14:54:15.290Z,81.04
2023-02-11T14:56:44.413Z,80.99
2023-02-11T14:59:18.228Z,81.56
2023-02-11T15:01:50.010Z,81.26
2023-02-11T15:04:26.103Z,80.64
2023-02-11T15:06:55.271Z,81.32
2023-02-11T15:09:31.065Z,81.42
2023-02-11T15:11:59.315Z,80.65
2023-02-11T15:14:30.787Z,80.90
2023-02-11T15:17:01.621Z,81.53
2023-02-11T15:19:34.382Z,81.55
2023-02-11T15:22:05.327Z,81.36
2023-02-11T15:24:36.104Z,81.07
2023-02-11T15:27:12.840Z,81.05
2023-02-11T15:29:43.300Z,81.10
2023-02-11T15:32:16.935Z,81.13
2023-02-11T15:34:45.932Z,81.50
2023-02-11T15:37:15.663Z,81.57
2023-02-11T15:39:44.843Z,81.44
2023-02-11T15:42:25.094Z,81.56
2023-02-11T15:45:12.820Z,81.78
2023-02-11T15:47:43.241Z,81.18
2023-02-11T15:50:22.107Z,81.67
2023-02-11T15:52:50.993Z,81.27
2023-02-11T15:55:21.223Z,81.16
2023-02-11T15:57:55.109Z,81.89
2023-02-11T16:00:25.962Z,81.32
2023-02-11T16:02:54.601Z,81.45
2023-02-11T16:05:29.361Z,81.97
2023-02-11T16:07:58.181Z,81.96
2023-02-11T16:10:30.057Z,81.71
2023-02-11T16:13:18.090Z,81.14
2023-02-11T16:15:50.705Z,81.50
2023-02-11T16:18:37.673Z,81.75
2023-02-11T16:21:08.853Z,81.85
2023-02-11T16:23:38.987Z,81.71
2023-02-11T16:26:13.834Z,81.11
2023-02-11T16:28:42.204Z,81.44
2023-02-11T16:31:10.662Z,81.60
2023-02-11T16:33:38.538Z,81.29
2023-02-11T16:36:13.085Z,81.76
2023-02-11T16:38:45.004Z,81.42
2023-02-11T16:41:14.308Z,82.46
2023-02-11T16:43:42.165Z,81.61
2023-02-11T16:46:14.984Z,81.82
2023-02-11T16:48:42.889Z,82.14
2023-02-11T16:51:12.230Z,81.98
2023-02-11T16:53:40.125Z,82.17
2023-02-11T16:56:08.385Z,82.18
2023-02-11T16:58:37.648Z,81.82
2023-02-11T17:01:05.636Z,82.33
2023-02-11T17:03:37.472Z,81.80
2023-02-11T17:06:11.760Z,81.55
2023-02-11T17:08:39.669Z,81.35
2023-02-11T17:11:07.547Z,81.83
2023-02-11T17:13:36.927Z,81.64
2023-02-11T17:16:04.755Z,81.30
2023-02-11T17:18:32.722Z,81.95
2023-02-11T17:21:01.293Z,81.79
2023-02-11T17:23:29.405Z,81.96
2023-02-11T17:25:57.837Z,82.32
2023-02-11T17:28:25.632Z,82.45
2023-02-11T17:30:54.894Z,81.93
2023-02-11T17:33:22.806Z,81.67
2023-02-11T17:35:51.319Z,82.58
2023-02-11T17:38:19.374Z,82.62
2023-02-11T17:40:47.201Z,82.57
2023-02-11T17:43:15.809Z,82.96
2023-02-11T17:45:43.655Z,82.70
2023-02-11T17:48:12.981Z,82.18
2023-02-11T17:50:40.713Z,82.13
2023-02-11T17:53:08.739Z,83.11
2023-02-11T17:55:38.376Z,82.62
2023-02-11T17:58:06.272Z,82.13
2023-02-11T18:00:34.228Z,82.24
2023-02-11T18:03:02.910Z,82.08
2023-02-11T18:08:28.131Z,82.33
2023-02-11T18:10:56.110Z,82.02
2023-02-11T18:13:23.861Z,82.20
2023-02-11T18:15:51.980Z,82.66
2023-02-11T18:18:20.061Z,82.84
2023-02-11T18:20:58.462Z,82.88
2023-02-11T18:23:26.883Z,83.10
2023-02-11T18:25:54.862Z,82.79
2023-02-11T18:28:22.806Z,82.21
2023-02-11T18:30:58.159Z,82.79
2023-02-11T18:33:26.669Z,83.10
2023-02-11T18:35:54.571Z,83.31
2023-02-11T18:38:24.162Z,82.48
2023-02-11T18:40:52.415Z,82.13
2023-02-11T18:43:20.861Z,83.03
2023-02-11T18:45:50.984Z,82.78
2023-02-11T18:48:20.189Z,83.26
2023-02-11T18:50:47.928Z,82.89
2023-02-11T18:53:16.085Z,82.65
2023-02-11T18:55:46.817Z,82.54
2023-02-11T18:58:15.275Z,82.73
2023-02-11T19:00:46.068Z,82.88
2023-02-11T19:03:13.975Z,82.72
2023-02-11T19:05:42.923Z,83.43
2023-02-11T19:08:11.113Z,82.84
2023-02-11T19:10:41.331Z,83.36
2023-02-11T19:13:10.947Z,83.11
2023-02-11T19:15:42.043Z,83.75
2023-02-11T19:18:10.489Z,82.60
2023-02-11T19:20:40.506Z,82.41
2023-02-11T19:23:08.531Z,82.68
2023-02-11T19:25:36.344Z,83.56
2023-02-11T19:28:04.673Z,83.11
2023-02-11T19:30:33.859Z,82.88
2023-02-11T19:33:01.734Z,82.99
2023-02-11T19:35:29.538Z,83.24
2023-02-11T19:37:57.496Z,83.14
2023-02-11T19:40:25.293Z,83.05
2023-02-11T19:42:53.102Z,83.36
2023-02-11T19:45:20.949Z,83.88
2023-02-11T19:47:50.026Z,83.03
2023-02-11T19:50:18.257Z,83.11
2023-02-11T19:52:46.063Z,83.54
2023-02-11T19:55:13.970Z,83.52
2023-02-11T19:57:41.833Z,83.14
2023-02-11T20:00:11.174Z,83.01
2023-02-11T20:02:42.125Z,83.56
2023-02-11T20:05:11.389Z,83.66
2023-02-11T20:07:39.199Z,83.02
2023-02-11T20:10:08.778Z,83.41
2023-02-11T20:12:37.617Z,83.21
2023-02-11T20:15:06.518Z,83.54
2023-02-11T20:17:34.349Z,83.21
2023-02-11T20:20:02.228Z,83.93
2023-02-11T20:22:31.488Z,83.33
2023-02-11T20:24:59.325Z,83.18
2023-02-11T20:27:29.020Z,83.91
2023-02-11T20:29:56.830Z,83.49
2023-02-11T20:32:24.629Z,83.36
2023-02-11T20:34:52.589Z,83.83
2023-02-11T20:37:20.731Z,83.53
2023-02-11T20:39:50.894Z,83.51
2023-02-11T20:42:18.675Z,84.21
2023-02-11T20:44:46.531Z,83.64
2023-02-11T20:47:14.378Z,83.16
2023-02-11T20:49:42.145Z,83.55
2023-02-11T20:52:10.082Z,83.07
2023-02-11T20:54:37.802Z,83.65
2023-02-11T20:57:07.179Z,83.42
2023-02-11T20:59:35.247Z,83.67
2023-02-11T21:02:03.765Z,84.13
2023-02-11T21:04:32.617Z,83.64
2023-02-11T21:07:02.577Z,83.71
2023-02-11T21:09:32.224Z,83.54
2023-02-11T21:12:00.460Z,84.22
2023-02-11T21:14:29.998Z,83.97
2023-02-11T21:16:58.136Z,84.10
2023-02-11T21:19:26.238Z,83.71
2023-02-11T21:21:55.112Z,84.13
2023-02-11T21:24:23.708Z,84.04
2023-02-11T21:26:51.557Z,84.07
2023-02-11T21:29:19.297Z,84.17
2023-02-11T21:31:48.512Z,84.20
2023-02-11T21:34:16.794Z,84.19
2023-02-11T21:36:45.212Z,83.51
2023-02-11T21:39:13.605Z,84.37
2023-02-11T21:41:41.406Z,84.33
2023-02-11T21:44:09.343Z,84.24
2023-02-11T21:46:37.155Z,84.41
2023-02-11T21:49:06.336Z,84.24
2023-02-11T21:51:34.202Z,84.25
2023-02-11T21:54:03.334Z,83.46
2023-02-11T21:56:33.432Z,84.29
2023-02-11T21:59:01.520Z,83.93
2023-02-11T22:01:31.018Z,83.98
2023-02-11T22:03:59.767Z,83.93
2023-02-11T22:06:31.707Z,84.54
2023-02-11T22:09:02.676Z,84.02
2023-02-11T22:11:30.997Z,84.03
2023-02-11T22:13:59.060Z,83.68
2023-02-11T22:16:30.825Z,84.44
2023-02-11T22:18:59.376Z,84.54
2023-02-11T22:21:27.381Z,84.99
2023-02-11T22:23:57.397Z,84.01
2023-02-11T22:26:27.344Z,84.14
2023-02-11T22:28:56.282Z,84.76
2023-02-11T22:31:25.921Z,84.57
2023-02-11T22:33:53.877Z,84.70
2023-02-11T22:36:23.824Z,84.64
2023-02-11T22:38:52.005Z,84.54
2023-02-11T22:41:21.966Z,84.96
2023-02-11T22:43:50.166Z,84.68
2023-02-11T22:46:19.463Z,84.97
2023-02-11T22:48:48.168Z,84.53
2023-02-11T22:51:17.910Z,84.33
2023-02-11T22:53:45.848Z,85.02
2023-02-11T22:56:15.858Z,84.25
2023-02-11T22:58:45.387Z,84.53
2023-02-11T23:01:15.596Z,84.91
2023-02-11T23:06:36.395Z,85.02
2023-02-11T23:09:04.855Z,84.71
2023-02-11T23:11:32.954Z,84.54
2023-02-11T23:14:02.133Z,85.17
2023-02-11T23:16:32.275Z,84.55
2023-02-11T23:19:01.271Z,84.38
2023-02-11T23:21:31.544Z,84.63
2023-02-11T23:24:02.468Z,84.87
2023-02-11T23:26:30.926Z,84.52
2023-02-11T23:28:59.689Z,84.73
2023-02-11T23:31:29.564Z,85.43
2023-02-11T23:33:57.975Z,85.35
2023-02-11T23:36:25.904Z,84.44
2023-02-11T23:38:53.811Z,85.47
2023-02-11T23:41:24.923Z,85.21
2023-02-11T23:43:54.193Z,84.46
